Time;durP1;ratioP1;P1;durP2;ratioP2;P2;SDS_P1;SDS_P2;PMS_P1;PMS_P2;Temp;Humidity;BMP_temperature;BMP_pressure;BME280_temperature;BME280_humidity;BME280_pressure;Samples;Min_cycle;Max_cycle;Signal;HPM_P1;HPM_P2
2021/10/28 00:12:20;;;;;;;45.23;18.00;;;;;;;1.07;76.71;101024.45;1666611;86;21342;-76
2021/10/28 00:15:30;;;;;;;33.05;17.80;;;;;;;1.12;77.75;101019.16;1666676;86;21845;-76
2021/10/28 00:18:42;;;;;;;33.90;17.42;;;;;;;1.15;77.56;101016.27;1665628;86;21864;-79
2021/10/28 00:21:48;;;;;;;30.72;18.48;;;;;;;1.19;77.81;101019.64;1666568;86;21633;-79
2021/10/28 00:24:53;;;;;;;43.05;18.02;;;;;;;1.21;78.69;101022.60;1666795;86;21141;-79
2021/10/28 00:27:58;;;;;;;33.55;18.40;;;;;;;1.27;79.48;101019.53;1665971;86;21331;-77
2021/10/28 00:31:03;;;;;;;33.85;16.67;;;;;;;1.34;80.14;101021.82;1666645;86;21310;-79
2021/10/28 00:34:08;;;;;;;40.15;17.35;;;;;;;1.38;80.55;101017.48;1666830;86;21260;-76
2021/10/28 00:37:13;;;;;;;31.00;16.20;;;;;;;1.40;80.42;101011.48;1666631;86;21359;-76
2021/10/28 00:40:18;;;;;;;33.53;16.93;;;;;;;1.42;80.06;101005.53;1684720;84;21193;-76
2021/10/28 00:43:23;;;;;;;34.90;16.87;;;;;;;1.45;80.25;101007.14;1689228;85;21251;-76
2021/10/28 00:46:23;;;;;;;27.97;16.80;;;;;;;1.47;80.44;101009.27;1689578;85;21237;-77
2021/10/28 00:49:27;;;;;;;28.98;16.20;;;;;;;1.47;80.59;101012.83;1689048;85;21311;-79
2021/10/28 00:52:33;;;;;;;26.82;15.78;;;;;;;1.48;81.09;101015.04;1689255;85;21352;-76
2021/10/28 00:55:38;;;;;;;28.85;16.02;;;;;;;1.50;81.79;101011.26;1689117;85;21288;-76
2021/10/28 00:58:43;;;;;;;40.92;16.65;;;;;;;1.54;82.39;101009.23;1688285;85;21890;-79
2021/10/28 01:01:49;;;;;;;33.60;16.07;;;;;;;1.59;83.03;101004.39;1689292;85;21292;-80
2021/10/28 01:04:54;;;;;;;27.62;15.58;;;;;;;1.65;83.69;101005.84;1689304;85;21293;-76
2021/10/28 01:08:01;;;;;;;30.88;15.13;;;;;;;1.72;84.54;101001.27;1689246;85;21339;-77
2021/10/28 01:11:06;;;;;;;23.32;13.10;;;;;;;1.83;85.40;100994.28;1689318;85;21360;-76
2021/10/28 01:14:12;;;;;;;40.33;15.45;;;;;;;1.90;85.76;100991.56;1689290;85;21338;-79
2021/10/28 01:17:17;;;;;;;27.25;16.82;;;;;;;1.96;86.31;100990.65;1689120;85;21372;-76
2021/10/28 01:20:22;;;;;;;28.17;16.07;;;;;;;2.01;86.55;100996.59;1689278;85;21284;-77
2021/10/28 01:23:27;;;;;;;34.38;15.00;;;;;;;2.05;86.78;101000.81;1689255;85;21332;-79
2021/10/28 01:26:32;;;;;;;26.17;15.55;;;;;;;2.07;86.93;100995.79;1689304;85;21324;-77
2021/10/28 01:29:37;;;;;;;28.50;16.40;;;;;;;2.11;87.20;101000.88;1689264;85;21304;-78
2021/10/28 01:32:42;;;;;;;25.65;15.55;;;;;;;2.15;87.57;100996.14;1689167;85;21249;-76
2021/10/28 01:35:47;;;;;;;31.62;16.00;;;;;;;2.20;88.01;100996.68;1689255;85;21285;-79
2021/10/28 01:38:54;;;;;;;28.00;15.65;;;;;;;2.24;88.35;100998.20;1689221;85;21213;-79
2021/10/28 01:41:59;;;;;;;24.77;14.47;;;;;;;2.29;88.61;100993.34;1689152;85;21299;-79
2021/10/28 01:45:03;;;;;;;29.55;16.15;;;;;;;2.31;88.80;100998.17;1689393;85;21283;-76
2021/10/28 01:48:10;;;;;;;27.77;15.32;;;;;;;2.32;88.68;100999.03;1689166;85;21312;-79
2021/10/28 01:51:18;;;;;;;28.17;15.78;;;;;;;2.29;88.52;100993.34;1666228;85;21292;-79
2021/10/28 01:54:24;;;;;;;32.37;15.43;;;;;;;2.24;88.29;100999.06;1689476;85;21337;-78
2021/10/28 01:57:29;;;;;;;25.82;15.35;;;;;;;2.21;87.96;100995.25;1689265;85;21241;-79
2021/10/28 02:00:34;;;;;;;27.50;14.87;;;;;;;2.16;87.83;100994.67;1689349;85;21898;-79
2021/10/28 02:03:39;;;;;;;30.15;15.40;;;;;;;2.13;87.88;100996.25;1689133;85;21343;-77
2021/10/28 02:06:45;;;;;;;30.72;15.95;;;;;;;2.10;87.85;100995.59;1689136;85;21189;-79
2021/10/28 02:09:51;;;;;;;25.62;16.30;;;;;;;2.05;87.68;100998.61;1689294;85;21823;-78
2021/10/28 02:12:56;;;;;;;31.97;16.80;;;;;;;2.02;87.67;101002.85;1689191;85;21327;-79
2021/10/28 02:16:01;;;;;;;26.95;17.23;;;;;;;2.02;88.08;101000.16;1689185;85;21195;-79
2021/10/28 02:19:07;;;;;;;31.82;17.25;;;;;;;2.04;88.69;101003.14;1688539;85;21331;-76
2021/10/28 02:22:12;;;;;;;29.23;16.27;;;;;;;2.07;89.22;101011.53;1688915;85;21798;-79
2021/10/28 02:25:18;;;;;;;33.83;17.52;;;;;;;2.08;89.65;101009.20;1689124;85;21177;-79
2021/10/28 02:28:23;;;;;;;28.02;17.82;;;;;;;2.10;89.96;101018.05;1688237;85;23211;-76
2021/10/28 02:31:31;;;;;;;34.78;18.00;;;;;;;2.10;90.17;101019.39;1689448;85;21285;-79
2021/10/28 02:34:35;;;;;;;33.10;18.98;;;;;;;2.11;90.40;101021.11;1689312;85;21345;-79
2021/10/28 02:37:40;;;;;;;35.90;18.05;;;;;;;2.11;90.71;101023.81;1688711;85;21361;-76
2021/10/28 02:40:45;;;;;;;32.95;18.27;;;;;;;2.12;91.01;101030.08;1688850;85;21288;-79
2021/10/28 02:43:52;;;;;;;32.50;18.25;;;;;;;2.13;91.38;101027.78;1688131;85;21217;-79
2021/10/28 02:46:57;;;;;;;29.27;17.42;;;;;;;2.15;91.73;101025.83;1689163;85;21280;-79
2021/10/28 02:50:03;;;;;;;35.68;18.32;;;;;;;2.16;91.95;101028.41;1688339;85;21853;-80
2021/10/28 02:53:08;;;;;;;28.60;18.23;;;;;;;2.15;91.97;101030.73;1688335;85;21323;-76
2021/10/28 02:56:14;;;;;;;30.72;18.05;;;;;;;2.14;91.93;101033.55;1689014;85;21580;-79
2021/10/28 02:59:18;;;;;;;31.95;19.42;;;;;;;2.09;91.97;101031.16;1688885;85;21750;-79
2021/10/28 03:02:24;;;;;;;32.90;18.30;;;;;;;2.08;92.14;101024.05;1688956;85;22243;-77
2021/10/28 03:05:30;;;;;;;34.23;18.90;;;;;;;2.05;92.27;101028.29;1688597;85;21364;-77
2021/10/28 03:08:35;;;;;;;34.75;18.70;;;;;;;2.04;92.35;101037.36;1688099;85;21940;-79
2021/10/28 03:11:42;;;;;;;31.70;20.10;;;;;;;2.02;92.46;101051.42;1689075;85;21345;-76
2021/10/28 03:14:56;;;;;;;40.08;20.08;;;;;;;1.99;92.63;101047.12;1689315;85;21336;-79
2021/10/28 03:19:07;;;;;;;40.48;20.45;;;;;;;2.01;92.97;101044.30;1689089;85;21348;-77
2021/10/28 03:28:01;;;;;;;39.73;21.35;;;;;;;2.02;93.56;101040.17;1688683;85;21347;-79
2021/10/28 03:31:06;;;;;;;41.33;21.20;;;;;;;2.03;93.75;101050.48;1687974;85;21353;-79
2021/10/28 03:34:11;;;;;;;44.73;21.48;;;;;;;2.01;93.81;101037.56;1689138;85;21304;-79
2021/10/28 03:37:20;;;;;;;30.85;20.05;;;;;;;1.97;93.84;101039.59;1688792;85;21184;-76
2021/10/28 03:40:54;;;;;;;35.75;20.80;;;;;;;1.96;93.99;101045.10;1688506;85;21366;-79
2021/10/28 03:44:02;;;;;;;34.48;22.42;;;;;;;1.96;94.16;101045.96;1681391;85;21217;-76
2021/10/28 04:00:12;;;;;;;42.78;23.47;;;;;;;1.98;95.27;101053.48;1681485;85;21304;-79
2021/10/28 04:16:50;;;;;;;43.17;24.43;;;;;;;2.14;96.57;101049.25;1681757;85;21317;-76
2021/10/28 04:20:19;;;;;;;41.77;23.05;;;;;;;2.19;96.83;101045.75;1680525;85;21300;-79
2021/10/28 04:29:51;;;;;;;39.42;24.45;;;;;;;2.36;97.16;101054.55;1681823;85;21783;-76
2021/10/28 04:32:57;;;;;;;46.02;24.82;;;;;;;2.41;96.97;101064.06;1680445;85;21237;-79
2021/10/28 04:36:02;;;;;;;49.67;26.87;;;;;;;2.45;96.79;101071.47;1681881;85;21329;-78
2021/10/28 04:39:10;;;;;;;55.45;29.57;;;;;;;2.48;96.68;101055.03;1680368;85;21185;-78
2021/10/28 04:42:16;;;;;;;55.67;26.10;;;;;;;2.51;96.61;101054.84;1681755;85;21336;-77
2021/10/28 04:45:21;;;;;;;41.92;25.37;;;;;;;2.55;96.48;101065.31;1666680;86;21287;-76
2021/10/28 04:48:26;;;;;;;42.90;24.32;;;;;;;2.58;96.31;101059.31;1666745;86;21339;-77
2021/10/28 04:51:31;;;;;;;49.05;24.25;;;;;;;2.61;96.13;101065.37;1666525;86;21232;-77
2021/10/28 04:54:38;;;;;;;46.40;24.67;;;;;;;2.64;95.95;101069.22;1666593;86;21327;-77
2021/10/28 04:57:43;;;;;;;49.88;25.60;;;;;;;2.66;95.75;101074.50;1665998;86;21350;-79
2021/10/28 05:00:49;;;;;;;51.85;27.55;;;;;;;2.69;95.53;101070.25;1666668;86;21303;-79
2021/10/28 05:03:56;;;;;;;53.60;24.87;;;;;;;2.71;95.38;101085.36;1657458;86;21200;-79
2021/10/28 05:07:02;;;;;;;45.40;26.27;;;;;;;2.73;95.31;101080.73;1687094;84;21713;-79
2021/10/28 05:10:08;;;;;;;49.50;25.25;;;;;;;2.77;95.23;101084.92;1681175;84;21194;-76
2021/10/28 05:13:15;;;;;;;49.42;24.45;;;;;;;2.81;95.08;101090.49;1682580;84;21361;-76
2021/10/28 05:16:20;;;;;;;46.60;24.63;;;;;;;2.83;94.80;101080.95;1685084;84;21820;-76
2021/10/28 05:19:34;;;;;;;43.08;25.12;;;;;;;2.84;94.48;101080.46;1691539;83;21880;-77
2021/10/28 05:22:35;;;;;;;45.70;25.02;;;;;;;2.88;94.32;101077.44;1695198;83;21214;-76
2021/10/28 05:25:41;;;;;;;39.88;24.05;;;;;;;2.96;94.04;101078.23;1686072;84;21304;-79
2021/10/28 05:28:46;;;;;;;46.80;24.35;;;;;;;3.05;94.04;101076.22;1692124;84;21297;-79
2021/10/28 05:31:51;;;;;;;39.83;24.10;;;;;;;3.20;94.03;101070.20;1692959;84;21337;-80
2021/10/28 05:34:59;;;;;;;45.80;23.50;;;;;;;3.32;93.67;101068.83;1685726;84;21859;-79
2021/10/28 05:38:03;;;;;;;41.77;24.85;;;;;;;3.47;93.24;101072.75;1693674;84;21660;-77
2021/10/28 05:41:08;;;;;;;50.55;24.25;;;;;;;3.60;92.92;101080.34;1691306;84;21317;-76
2021/10/28 05:44:13;;;;;;;43.17;23.95;;;;;;;3.74;92.75;101082.89;1695828;83;21222;-79
2021/10/28 05:47:20;;;;;;;42.90;23.47;;;;;;;3.91;92.52;101092.97;1712958;82;21317;-76
2021/10/28 05:50:26;;;;;;;42.25;21.97;;;;;;;4.05;92.04;101103.62;1717825;82;21186;-76
2021/10/28 05:53:31;;;;;;;48.55;24.27;;;;;;;4.15;91.68;101103.30;1716520;82;21174;-76
2021/10/28 05:56:37;;;;;;;55.43;26.93;;;;;;;4.31;91.40;101120.11;1727443;82;21191;-76
2021/10/28 05:59:42;;;;;;;83.55;36.88;;;;;;;4.48;91.34;101120.69;1718005;81;21264;-77
2021/10/28 06:02:49;;;;;;;66.90;32.28;;;;;;;4.63;91.69;101108.66;1716126;81;21755;-77
2021/10/28 06:05:54;;;;;;;64.00;32.03;;;;;;;4.79;92.00;101101.05;1719455;81;21219;-80
2021/10/28 06:08:59;;;;;;;66.22;32.25;;;;;;;4.90;92.00;101108.86;1713809;81;21191;-80
2021/10/28 06:12:06;;;;;;;68.55;34.08;;;;;;;5.01;91.88;101112.44;1718045;81;21882;-81
2021/10/28 06:15:14;;;;;;;59.73;33.95;;;;;;;5.09;91.61;101107.77;1721164;81;21345;-80
2021/10/28 06:21:25;;;;;;;62.88;33.55;;;;;;;5.21;90.70;101119.48;1712558;82;21520;-76
2021/10/28 06:24:31;;;;;;;57.40;32.25;;;;;;;5.25;90.29;101119.11;1701729;82;21314;-78
2021/10/28 06:27:36;;;;;;;62.85;33.78;;;;;;;5.32;90.08;101109.52;1697360;82;21301;-79
2021/10/28 06:30:41;;;;;;;71.30;34.85;;;;;;;5.42;89.91;101109.64;1712024;81;60718;-79
2021/10/28 06:33:59;;;;;;;67.50;35.70;;;;;;;5.56;89.67;101112.59;1694298;81;21264;-76
2021/10/28 06:37:04;;;;;;;61.73;35.52;;;;;;;5.72;89.30;101102.69;1718999;81;21256;-75
2021/10/28 06:40:13;;;;;;;77.27;37.30;;;;;;;5.87;88.82;101105.00;1725555;82;21335;-76
2021/10/28 06:43:21;;;;;;;70.47;35.95;;;;;;;6.03;88.32;101105.14;1717684;82;21850;-76
2021/10/28 06:46:27;;;;;;;70.22;38.45;;;;;;;6.20;87.82;101104.57;1718796;81;21308;-76
2021/10/28 06:49:35;;;;;;;71.05;40.88;;;;;;;6.35;87.24;101106.48;1717896;82;21320;-76
2021/10/28 06:53:06;;;;;;;73.00;41.10;;;;;;;6.49;86.74;101107.53;1718052;82;21686;-76
2021/10/28 06:56:25;;;;;;;68.40;37.75;;;;;;;6.61;86.25;101103.78;1714343;82;21507;-76
2021/10/28 07:02:46;;;;;;;68.92;38.78;;;;;;;6.84;85.06;101115.40;1720651;82;21286;-78
2021/10/28 07:05:52;;;;;;;69.82;39.45;;;;;;;6.95;84.47;101112.23;1721470;82;21230;-80
2021/10/28 07:09:15;;;;;;;68.60;40.30;;;;;;;7.09;84.10;101111.90;1718614;82;21187;-80
2021/10/28 07:12:54;;;;;;;69.20;38.08;;;;;;;7.26;83.57;101108.56;1730574;82;21868;-80
2021/10/28 07:15:20;;;;;;;66.47;39.30;;;;;;;7.43;82.78;101105.22;1723785;82;21229;-79
2021/10/28 07:18:42;;;;;;;73.33;40.90;;;;;;;7.57;82.15;101096.28;1724018;82;21262;-76
2021/10/28 08:05:10;;;;;;;81.22;44.67;;;;;;;9.11;74.01;101096.91;1713094;83;21343;-75
2021/10/28 08:28:42;;;;;;;61.55;35.30;;;;;;;9.46;72.60;101048.44;1724389;81;21325;-78
2021/10/28 08:31:03;;;;;;;57.23;30.37;;;;;;;9.50;72.57;101031.73;1713112;82;21321;-78
2021/10/28 08:34:09;;;;;;;56.85;30.75;;;;;;;9.55;72.80;101040.32;1721169;82;21218;-79
2021/10/28 08:37:22;;;;;;;48.68;30.35;;;;;;;9.62;72.87;101044.18;1710693;81;21327;-79
2021/10/28 08:40:27;;;;;;;59.80;33.50;;;;;;;9.71;72.77;101050.09;1718394;82;21325;-79
2021/10/28 08:43:35;;;;;;;65.65;35.48;;;;;;;9.78;72.18;101053.92;1706160;82;21291;-79
2021/10/28 08:46:44;;;;;;;43.75;25.15;;;;;;;9.83;71.61;101066.61;1688435;82;21300;-76
2021/10/28 08:49:57;;;;;;;39.55;24.02;;;;;;;9.86;71.39;101064.09;1676986;83;21188;-75
2021/10/28 08:56:08;;;;;;;43.00;23.98;;;;;;;9.98;71.34;101065.61;1730899;81;21991;-76
2021/10/28 09:23:52;;;;;;;34.15;21.50;;;;;;;10.39;69.55;101029.97;1726853;81;21158;-76
2021/10/28 09:26:30;;;;;;;27.58;17.37;;;;;;;10.44;69.28;101033.12;1736523;81;21212;-79
2021/10/28 09:32:40;;;;;;;28.47;17.45;;;;;;;10.45;68.78;101033.98;1724954;81;21339;-79
2021/10/28 09:49:59;;;;;;;31.68;19.07;;;;;;;10.74;68.42;101015.90;1731321;82;21237;-76
2021/10/28 09:53:27;;;;;;;30.68;19.95;;;;;;;10.89;68.23;101003.34;1732360;82;21198;-80
2021/10/28 10:00:09;;;;;;;30.97;18.65;;;;;;;11.03;67.15;100999.14;1732408;82;21333;-76
2021/10/28 10:03:21;;;;;;;28.50;17.55;;;;;;;10.97;67.13;100991.08;1728406;82;21788;-76
2021/10/28 10:06:26;;;;;;;28.77;16.82;;;;;;;10.93;67.11;100986.95;1734578;82;21281;-76
2021/10/28 10:09:29;;;;;;;30.70;19.25;;;;;;;10.93;67.19;100992.93;1726504;82;21357;-79
2021/10/28 10:12:34;;;;;;;29.52;18.10;;;;;;;10.94;67.37;100978.22;1730809;82;21699;-76
2021/10/28 10:15:39;;;;;;;30.52;18.62;;;;;;;10.97;67.37;100977.91;1724277;82;21350;-76
2021/10/28 10:18:45;;;;;;;28.75;19.00;;;;;;;10.99;67.33;100983.55;1723534;82;21356;-79
2021/10/28 10:21:53;;;;;;;28.45;17.05;;;;;;;11.03;67.28;100977.75;1726155;82;21203;-79
2021/10/28 10:28:45;;;;;;;26.65;17.65;;;;;;;11.08;66.86;100991.30;1727289;82;21333;-76
2021/10/28 11:19:41;;;;;;;18.25;11.80;;;;;;;11.82;61.34;100925.80;1724697;81;21297;-79
2021/10/28 11:26:35;;;;;;;19.00;11.30;;;;;;;11.75;62.04;100916.86;1708440;82;21182;-79
2021/10/28 11:32:53;;;;;;;35.58;16.02;;;;;;;11.64;60.98;100922.69;1726459;82;21733;-75
2021/10/28 12:14:34;;;;;;;15.45;10.72;;;;;;;12.01;60.46;100906.31;1732001;82;21312;-76
2021/10/28 12:17:20;;;;;;;14.07;8.68;;;;;;;12.03;60.28;100891.91;1674549;83;21357;-79
2021/10/28 12:43:33;;;;;;;18.85;9.93;;;;;;;12.04;60.06;100886.76;1691522;85;21244;-76
2021/10/28 12:44:24;;;;;;;14.95;9.60;;;;;;;12.03;60.13;100883.16;1691159;85;21347;-79
2021/10/28 13:04:21;;;;;;;13.98;9.33;;;;;;;12.09;60.52;100878.02;1691114;85;21252;-77
2021/10/28 13:38:01;;;;;;;25.35;12.15;;;;;;;11.92;61.93;100878.55;1691216;85;21315;-77
2021/10/28 13:51:11;;;;;;;22.07;11.68;;;;;;;11.73;62.54;100870.97;1691300;85;21335;-76
2021/10/28 13:57:44;;;;;;;20.88;11.55;;;;;;;11.66;62.88;100871.30;1675942;85;21323;-76
2021/10/28 15:27:39;;;;;;;26.17;14.13;;;;;;;10.94;65.48;100886.02;1684328;85;21370;-79
2021/10/28 15:37:27;;;;;;;27.98;15.63;;;;;;;10.96;65.93;100888.09;1712903;84;21352;-79
2021/10/28 15:40:41;;;;;;;28.55;15.23;;;;;;;10.93;66.01;100888.41;1712933;84;21316;-79
2021/10/28 15:47:13;;;;;;;30.37;17.48;;;;;;;10.91;66.08;100890.44;1712805;84;21315;-75
2021/10/28 16:24:07;;;;;;;34.33;18.50;;;;;;;10.82;66.39;100902.88;1706994;83;21841;-79
2021/10/28 16:27:12;;;;;;;43.70;18.70;;;;;;;10.79;66.45;100899.98;1725066;83;21244;-79
2021/10/28 16:30:17;;;;;;;37.63;20.45;;;;;;;10.76;66.51;100904.39;1724329;83;21742;-79
2021/10/28 16:33:22;;;;;;;39.75;19.85;;;;;;;10.73;66.55;100903.38;1723971;83;21327;-76
2021/10/28 16:36:28;;;;;;;38.40;20.45;;;;;;;10.70;66.64;100903.17;1725300;83;21177;-79
2021/10/28 16:39:32;;;;;;;48.63;21.50;;;;;;;10.68;66.73;100900.23;1725048;83;21785;-79
2021/10/28 16:42:38;;;;;;;44.00;21.35;;;;;;;10.66;66.79;100898.19;1724869;83;21319;-79
2021/10/28 16:45:46;;;;;;;43.92;20.75;;;;;;;10.64;66.87;100906.57;1725290;83;21157;-79
2021/10/28 16:48:52;;;;;;;49.23;21.93;;;;;;;10.63;67.00;100905.34;1725333;83;21323;-79
2021/10/28 16:51:56;;;;;;;44.65;21.93;;;;;;;10.64;67.08;100911.19;1725453;83;21295;-79
2021/10/28 16:55:02;;;;;;;44.85;21.40;;;;;;;10.63;67.08;100903.49;1721385;83;21197;-79
2021/10/28 16:58:10;;;;;;;43.13;21.55;;;;;;;10.63;67.10;100906.70;1704729;84;21208;-76
2021/10/28 17:01:18;;;;;;;55.15;22.93;;;;;;;10.62;67.08;100900.38;1704749;84;21343;-76
2021/10/28 17:04:24;;;;;;;55.55;22.87;;;;;;;10.60;67.10;100898.84;1704775;84;21146;-77
2021/10/28 17:07:29;;;;;;;48.02;21.35;;;;;;;10.57;67.24;100896.42;1704689;84;21894;-77
2021/10/28 17:10:34;;;;;;;48.17;23.07;;;;;;;10.56;67.29;100896.09;1704594;84;21324;-77
2021/10/28 17:13:39;;;;;;;39.48;21.95;;;;;;;10.53;67.32;100893.66;1703532;84;21376;-76
2021/10/28 17:16:47;;;;;;;50.10;24.77;;;;;;;10.52;67.38;100898.79;1704579;84;21150;-79
2021/10/28 17:19:54;;;;;;;59.27;24.47;;;;;;;10.49;67.40;100896.74;1703161;84;21751;-79
2021/10/28 17:22:58;;;;;;;49.40;24.35;;;;;;;10.47;67.46;100894.66;1703951;84;21277;-76
2021/10/28 17:26:04;;;;;;;46.92;24.05;;;;;;;10.45;67.59;100891.24;1704562;84;21328;-76
2021/10/28 17:29:10;;;;;;;45.20;23.52;;;;;;;10.46;67.62;100891.58;1702863;84;21229;-76
2021/10/28 17:32:15;;;;;;;58.87;23.75;;;;;;;10.46;67.58;100892.95;1704454;84;21335;-76
2021/10/28 17:35:20;;;;;;;53.40;24.20;;;;;;;10.46;67.51;100893.47;1704732;84;21284;-79
2021/10/28 17:38:19;;;;;;;50.40;23.50;;;;;;;10.46;67.47;100899.78;1704727;84;21868;-79
2021/10/28 17:41:25;;;;;;;50.28;22.67;;;;;;;10.44;67.43;100896.85;1704715;84;21174;-79
2021/10/28 17:44:39;;;;;;;53.45;24.43;;;;;;;10.42;67.48;100896.17;1704701;84;21353;-76
2021/10/28 17:47:43;;;;;;;47.80;22.95;;;;;;;10.39;67.57;100898.70;1704545;84;21340;-76
2021/10/28 17:50:49;;;;;;;48.73;22.27;;;;;;;10.35;67.64;100889.13;1704834;84;21285;-76
2021/10/28 17:53:54;;;;;;;40.15;21.73;;;;;;;10.33;67.76;100888.41;1704599;84;21205;-79
2021/10/28 17:57:00;;;;;;;44.63;21.42;;;;;;;10.30;67.90;100892.83;1704659;83;21888;-79
2021/10/28 18:00:05;;;;;;;44.63;22.22;;;;;;;10.27;68.09;100893.17;1704843;84;21288;-79
2021/10/28 18:03:11;;;;;;;41.70;20.80;;;;;;;10.24;68.30;100890.23;1704625;84;21191;-76
2021/10/28 18:06:16;;;;;;;46.92;21.07;;;;;;;10.20;68.46;100890.67;1704819;84;21320;-79
2021/10/28 18:09:23;;;;;;;38.78;19.52;;;;;;;10.14;68.66;100894.91;1704698;84;21824;-76
2021/10/28 18:12:31;;;;;;;32.40;17.98;;;;;;;10.07;68.99;100892.96;1704437;84;21276;-79
2021/10/28 18:15:36;;;;;;;30.10;18.37;;;;;;;9.98;69.39;100890.70;1704746;84;21170;-79
2021/10/28 18:18:42;;;;;;;37.30;20.15;;;;;;;9.87;69.71;100888.20;1704695;84;21293;-78
2021/10/28 18:21:52;;;;;;;41.63;21.02;;;;;;;9.77;69.92;100892.38;1704823;84;21324;-79
2021/10/28 18:24:54;;;;;;;34.85;20.68;;;;;;;9.64;70.29;100892.77;1704905;84;21707;-79
2021/10/28 18:28:00;;;;;;;38.95;21.12;;;;;;;9.55;70.77;100899.20;1704869;84;21786;-76
2021/10/28 18:31:06;;;;;;;40.85;21.17;;;;;;;9.46;71.10;100907.80;1704707;84;21277;-79
2021/10/28 18:34:12;;;;;;;39.40;20.02;;;;;;;9.38;71.46;100913.68;1704175;84;21205;-80
2021/10/28 18:37:17;;;;;;;35.30;20.95;;;;;;;9.32;71.85;100920.62;1704444;84;21177;-79
2021/10/28 18:40:23;;;;;;;47.90;21.57;;;;;;;9.26;72.08;100911.66;1704750;84;21700;-76
2021/10/28 18:43:28;;;;;;;37.60;19.77;;;;;;;9.19;72.25;100914.66;1703800;84;21352;-79
2021/10/28 18:46:34;;;;;;;43.78;23.10;;;;;;;9.13;72.76;100921.59;1704709;84;21288;-79
2021/10/28 18:49:38;;;;;;;36.85;21.68;;;;;;;9.10;73.26;100921.03;1704135;84;21318;-76
2021/10/28 18:52:44;;;;;;;41.45;22.80;;;;;;;9.08;73.50;100920.30;1703848;84;21325;-78
2021/10/28 18:55:52;;;;;;;47.43;24.95;;;;;;;9.06;73.75;100917.73;1704932;84;21280;-76
2021/10/28 18:58:55;;;;;;;49.88;24.35;;;;;;;9.05;74.25;100924.22;1710510;83;21343;-76
2021/10/28 19:02:02;;;;;;;48.50;25.75;;;;;;;9.07;74.26;100922.69;1712535;84;21205;-76
2021/10/28 19:05:09;;;;;;;42.88;24.43;;;;;;;9.05;74.02;100933.77;1712692;84;21347;-79
2021/10/28 19:08:15;;;;;;;52.03;26.05;;;;;;;9.02;74.09;100938.66;1711946;84;21339;-76
2021/10/28 19:11:24;;;;;;;48.15;25.80;;;;;;;8.99;74.29;100936.22;1712620;84;21770;-79
2021/10/28 19:14:29;;;;;;;43.50;25.25;;;;;;;8.95;74.50;100947.96;1712688;84;21284;-76
2021/10/28 19:17:36;;;;;;;47.80;26.07;;;;;;;8.91;74.62;100951.49;1712387;84;21613;-79
2021/10/28 19:20:43;;;;;;;47.83;25.62;;;;;;;8.88;74.99;100961.33;1711732;84;21356;-79
2021/10/28 19:23:49;;;;;;;49.50;25.05;;;;;;;8.86;75.15;100959.27;1711498;84;21347;-79
2021/10/28 19:26:55;;;;;;;48.50;26.50;;;;;;;8.83;75.28;100963.64;1712755;84;21165;-79
2021/10/28 19:30:10;;;;;;;54.27;25.30;;;;;;;8.82;75.71;100967.39;1712753;84;21511;-79
2021/10/28 19:33:22;;;;;;;52.23;27.48;;;;;;;8.82;76.00;100961.08;1711406;84;21351;-79
2021/10/28 19:36:32;;;;;;;51.95;27.60;;;;;;;8.80;76.25;100955.78;1712714;84;21747;-76
2021/10/28 19:46:14;;;;;;;51.08;27.85;;;;;;;8.71;76.53;100977.13;1711376;84;21323;-79
2021/10/28 19:49:20;;;;;;;50.28;29.35;;;;;;;8.65;76.81;100977.19;1712774;84;21291;-76
2021/10/28 19:52:26;;;;;;;57.88;30.82;;;;;;;8.60;77.26;100975.41;1712451;84;21717;-79
2021/10/28 19:55:30;;;;;;;52.78;28.92;;;;;;;8.58;77.88;100975.22;1712709;84;21260;-76
2021/10/28 19:58:37;;;;;;;53.80;29.02;;;;;;;8.57;78.31;100978.96;1711918;83;21311;-76
2021/10/28 20:01:54;;;;;;;61.75;29.82;;;;;;;8.55;78.25;100978.23;1712753;84;21825;-79
2021/10/28 20:05:23;;;;;;;57.20;31.15;;;;;;;8.51;78.43;100989.06;1711407;84;21225;-79
2021/10/28 20:13:06;;;;;;;48.48;30.10;;;;;;;8.45;78.80;100987.80;1711966;84;21657;-79
2021/10/28 20:21:26;;;;;;;53.52;30.72;;;;;;;8.29;79.59;100992.96;1712658;84;21339;-76
2021/10/28 20:24:32;;;;;;;56.58;30.25;;;;;;;8.28;79.83;100989.38;1712903;84;21739;-76
2021/10/28 20:27:37;;;;;;;51.92;30.82;;;;;;;8.31;80.08;100989.58;1712817;84;21842;-76
2021/10/28 20:30:57;;;;;;;63.80;31.33;;;;;;;8.33;80.32;100981.63;1712791;84;21296;-79
2021/10/28 20:37:13;;;;;;;56.70;32.35;;;;;;;8.40;80.50;100972.38;1712805;84;21329;-77
2021/10/28 20:40:18;;;;;;;63.48;31.90;;;;;;;8.43;80.51;100980.28;1712872;84;21288;-76
2021/10/28 20:43:23;;;;;;;64.22;32.98;;;;;;;8.48;80.65;100981.20;1712122;84;21342;-76
2021/10/28 20:46:29;;;;;;;52.73;32.05;;;;;;;8.52;81.10;100984.86;1712731;84;21280;-79
2021/10/28 20:49:35;;;;;;;64.95;31.73;;;;;;;8.59;81.52;100987.34;1711408;84;21308;-79
2021/10/28 20:52:40;;;;;;;56.45;32.95;;;;;;;8.67;81.93;101000.25;1712040;84;21977;-76
2021/10/28 20:55:45;;;;;;;60.00;33.15;;;;;;;8.77;82.47;101002.44;1712858;84;21173;-79
2021/10/28 20:58:51;;;;;;;61.23;33.10;;;;;;;8.88;82.71;100995.43;1711298;84;21362;-79
2021/10/28 21:01:56;;;;;;;61.73;32.23;;;;;;;8.99;82.62;101002.59;1702611;84;21344;-76
2021/10/28 21:05:03;;;;;;;59.65;34.48;;;;;;;9.09;82.45;101011.60;1701445;84;21355;-76
2021/10/28 21:08:10;;;;;;;58.45;32.75;;;;;;;9.17;82.20;101020.38;1701341;84;21376;-77
2021/10/28 21:11:16;;;;;;;55.65;31.80;;;;;;;9.26;81.86;101024.09;1702613;84;21284;-76
2021/10/28 21:14:23;;;;;;;54.75;33.05;;;;;;;9.31;81.48;101019.03;1701931;84;21340;-79
2021/10/28 21:17:29;;;;;;;55.85;32.33;;;;;;;9.36;81.21;101025.78;1702349;84;21324;-79
2021/10/28 21:20:34;;;;;;;66.60;34.00;;;;;;;9.39;81.00;101025.46;1702447;84;21308;-76
2021/10/28 21:23:40;;;;;;;53.25;30.45;;;;;;;9.42;80.86;101019.70;1702331;84;21355;-76
2021/10/28 21:26:45;;;;;;;66.62;32.65;;;;;;;9.46;80.72;101025.22;1702582;84;21265;-79
2021/10/28 21:29:50;;;;;;;54.65;31.65;;;;;;;9.48;80.67;101027.28;1702608;84;21287;-79
2021/10/28 21:32:57;;;;;;;50.45;31.42;;;;;;;9.52;80.64;101030.58;1701847;84;21944;-79
2021/10/28 21:36:02;;;;;;;59.75;33.92;;;;;;;9.53;80.64;101032.80;1702642;84;21760;-79
2021/10/28 21:39:07;;;;;;;49.58;31.27;;;;;;;9.57;80.78;101031.48;1702614;84;21273;-79
2021/10/28 21:42:12;;;;;;;48.52;29.63;;;;;;;9.63;81.12;101034.97;1702516;84;21324;-79
2021/10/28 21:45:20;;;;;;;61.05;31.37;;;;;;;9.68;81.27;101038.09;1701615;84;21312;-79
2021/10/28 21:48:29;;;;;;;51.92;32.00;;;;;;;9.71;81.39;101040.53;1702612;84;21862;-76
2021/10/28 21:51:34;;;;;;;51.80;33.18;;;;;;;9.75;81.87;101040.58;1702562;84;21807;-77
2021/10/28 21:54:45;;;;;;;53.08;32.45;;;;;;;9.79;82.39;101043.37;1702673;84;21170;-79
2021/10/28 22:01:58;;;;;;;54.33;34.43;;;;;;;9.87;84.09;101042.58;1707436;83;21209;-79
2021/10/28 22:27:48;;;;;;;52.83;33.98;;;;;;;9.78;87.04;101032.06;1712270;84;21830;-77
2021/10/28 22:30:53;;;;;;;67.03;33.95;;;;;;;9.78;87.05;101037.52;1712714;84;21284;-77
2021/10/28 22:33:59;;;;;;;69.87;35.80;;;;;;;9.78;87.05;101045.72;1711451;84;21327;-79
2021/10/28 22:37:21;;;;;;;65.40;33.98;;;;;;;9.79;87.06;101047.47;1712585;84;21339;-79
2021/10/28 22:43:22;;;;;;;59.20;33.95;;;;;;;9.79;86.92;101039.27;1712838;84;21961;-79
2021/10/28 22:46:29;;;;;;;54.80;32.80;;;;;;;9.82;86.87;101043.55;1712882;84;21249;-76
2021/10/28 22:49:33;;;;;;;59.13;33.85;;;;;;;9.82;87.03;101047.14;1712830;84;21887;-79
2021/10/28 22:52:40;;;;;;;58.98;34.67;;;;;;;9.81;87.09;101042.69;1712417;84;21241;-77
2021/10/28 22:55:47;;;;;;;57.38;35.92;;;;;;;9.81;87.22;101045.42;1712094;84;21339;-79
2021/10/28 22:59:00;;;;;;;64.10;37.28;;;;;;;9.81;87.36;101052.26;1711538;84;21331;-79
2021/10/28 23:02:25;;;;;;;52.58;34.60;;;;;;;9.79;87.51;101040.64;1712300;82;21395;-79